sensor_id;sensor_type;location;lat;lon;timestamp;temperature;humidity
66861;SHT31;53770;42.334;23.550;2022-08-25T00:00:34;18.67;84.06
66861;SHT31;53770;42.334;23.550;2022-08-25T00:03:01;18.69;83.94
66861;SHT31;53770;42.334;23.550;2022-08-25T00:05:29;18.73;83.89
66861;SHT31;53770;42.334;23.550;2022-08-25T00:07:56;18.72;83.81
66861;SHT31;53770;42.334;23.550;2022-08-25T00:10:22;18.73;83.78
66861;SHT31;53770;42.334;23.550;2022-08-25T00:12:49;18.75;83.78
66861;SHT31;53770;42.334;23.550;2022-08-25T00:15:16;18.78;83.83
66861;SHT31;53770;42.334;23.550;2022-08-25T00:17:43;18.85;83.68
66861;SHT31;53770;42.334;23.550;2022-08-25T00:20:10;18.88;83.60
66861;SHT31;53770;42.334;23.550;2022-08-25T00:22:38;18.94;83.70
66861;SHT31;53770;42.334;23.550;2022-08-25T00:25:06;18.96;83.67
66861;SHT31;53770;42.334;23.550;2022-08-25T00:27:34;19.02;83.65
66861;SHT31;53770;42.334;23.550;2022-08-25T00:30:02;19.03;83.22
66861;SHT31;53770;42.334;23.550;2022-08-25T00:32:30;18.99;82.94
66861;SHT31;53770;42.334;23.550;2022-08-25T00:34:57;18.96;82.82
66861;SHT31;53770;42.334;23.550;2022-08-25T00:37:25;18.89;82.74
66861;SHT31;53770;42.334;23.550;2022-08-25T00:39:53;18.85;82.92
66861;SHT31;53770;42.334;23.550;2022-08-25T00:42:21;18.82;83.01
66861;SHT31;53770;42.334;23.550;2022-08-25T00:44:48;18.86;83.04
66861;SHT31;53770;42.334;23.550;2022-08-25T00:47:15;18.82;82.99
66861;SHT31;53770;42.334;23.550;2022-08-25T00:49:43;18.84;83.02
66861;SHT31;53770;42.334;23.550;2022-08-25T00:52:14;18.89;82.86
66861;SHT31;53770;42.334;23.550;2022-08-25T00:54:46;18.92;82.97
66861;SHT31;53770;42.334;23.550;2022-08-25T00:57:21;18.94;82.67
66861;SHT31;53770;42.334;23.550;2022-08-25T00:59:49;18.95;82.62
66861;SHT31;53770;42.334;23.550;2022-08-25T01:02:16;18.95;82.61
66861;SHT31;53770;42.334;23.550;2022-08-25T01:04:44;18.95;82.53
66861;SHT31;53770;42.334;23.550;2022-08-25T01:07:11;18.95;82.43
66861;SHT31;53770;42.334;23.550;2022-08-25T01:09:40;18.94;82.47
66861;SHT31;53770;42.334;23.550;2022-08-25T01:12:08;18.91;82.59
66861;SHT31;53770;42.334;23.550;2022-08-25T01:14:36;18.91;82.69
66861;SHT31;53770;42.334;23.550;2022-08-25T01:17:04;18.95;82.74
66861;SHT31;53770;42.334;23.550;2022-08-25T01:19:31;19.00;82.85
66861;SHT31;53770;42.334;23.550;2022-08-25T01:21:59;19.03;82.71
66861;SHT31;53770;42.334;23.550;2022-08-25T01:24:32;19.06;82.35
66861;SHT31;53770;42.334;23.550;2022-08-25T01:27:01;18.99;82.27
66861;SHT31;53770;42.334;23.550;2022-08-25T01:29:29;18.94;82.46
66861;SHT31;53770;42.334;23.550;2022-08-25T01:31:57;18.88;82.69
66861;SHT31;53770;42.334;23.550;2022-08-25T01:34:25;18.84;82.78
66861;SHT31;53770;42.334;23.550;2022-08-25T01:36:54;18.84;83.19
66861;SHT31;53770;42.334;23.550;2022-08-25T01:39:23;18.75;83.50
66861;SHT31;53770;42.334;23.550;2022-08-25T01:42:08;18.71;84.03
66861;SHT31;53770;42.334;23.550;2022-08-25T01:44:37;18.67;84.74
66861;SHT31;53770;42.334;23.550;2022-08-25T01:47:05;18.62;84.78
66861;SHT31;53770;42.334;23.550;2022-08-25T01:49:32;18.51;84.73
66861;SHT31;53770;42.334;23.550;2022-08-25T01:52:01;18.44;85.14
66861;SHT31;53770;42.334;23.550;2022-08-25T01:54:32;18.40;85.24
66861;SHT31;53770;42.334;23.550;2022-08-25T01:56:58;18.41;85.45
66861;SHT31;53770;42.334;23.550;2022-08-25T01:59:26;18.43;85.46
66861;SHT31;53770;42.334;23.550;2022-08-25T02:01:53;18.49;85.48
66861;SHT31;53770;42.334;23.550;2022-08-25T02:04:20;18.58;85.47
66861;SHT31;53770;42.334;23.550;2022-08-25T02:06:47;18.59;85.42
66861;SHT31;53770;42.334;23.550;2022-08-25T02:09:15;18.62;85.22
66861;SHT31;53770;42.334;23.550;2022-08-25T02:11:45;18.62;84.78
66861;SHT31;53770;42.334;23.550;2022-08-25T02:14:14;18.55;83.73
66861;SHT31;53770;42.334;23.550;2022-08-25T02:16:45;18.40;83.52
66861;SHT31;53770;42.334;23.550;2022-08-25T02:19:14;18.38;83.90
66861;SHT31;53770;42.334;23.550;2022-08-25T02:21:41;18.29;82.68
66861;SHT31;53770;42.334;23.550;2022-08-25T02:24:08;18.26;81.37
66861;SHT31;53770;42.334;23.550;2022-08-25T02:26:35;18.20;81.74
66861;SHT31;53770;42.334;23.550;2022-08-25T02:29:04;18.20;81.93
66861;SHT31;53770;42.334;23.550;2022-08-25T02:31:32;18.21;81.34
66861;SHT31;53770;42.334;23.550;2022-08-25T02:33:59;18.18;80.83
66861;SHT31;53770;42.334;23.550;2022-08-25T02:36:26;18.17;79.95
66861;SHT31;53770;42.334;23.550;2022-08-25T02:38:53;18.18;80.09
66861;SHT31;53770;42.334;23.550;2022-08-25T02:41:21;18.18;79.87
66861;SHT31;53770;42.334;23.550;2022-08-25T02:43:49;18.24;80.11
66861;SHT31;53770;42.334;23.550;2022-08-25T02:46:19;18.29;79.97
66861;SHT31;53770;42.334;23.550;2022-08-25T02:48:47;18.29;79.44
66861;SHT31;53770;42.334;23.550;2022-08-25T02:51:14;18.24;79.59
66861;SHT31;53770;42.334;23.550;2022-08-25T02:53:42;18.17;79.80
66861;SHT31;53770;42.334;23.550;2022-08-25T02:56:12;18.11;80.28
66861;SHT31;53770;42.334;23.550;2022-08-25T02:58:40;18.07;80.21
66861;SHT31;53770;42.334;23.550;2022-08-25T03:01:07;17.97;80.57
66861;SHT31;53770;42.334;23.550;2022-08-25T03:03:37;17.92;80.75
66861;SHT31;53770;42.334;23.550;2022-08-25T03:06:06;17.93;80.85
66861;SHT31;53770;42.334;23.550;2022-08-25T03:08:33;17.89;80.61
66861;SHT31;53770;42.334;23.550;2022-08-25T03:11:00;17.89;80.72
66861;SHT31;53770;42.334;23.550;2022-08-25T03:13:27;17.93;80.79
66861;SHT31;53770;42.334;23.550;2022-08-25T03:15:54;17.93;80.83
66861;SHT31;53770;42.334;23.550;2022-08-25T03:18:20;17.90;81.03
66861;SHT31;53770;42.334;23.550;2022-08-25T03:20:49;17.87;81.16
66861;SHT31;53770;42.334;23.550;2022-08-25T03:23:16;17.89;81.15
66861;SHT31;53770;42.334;23.550;2022-08-25T03:25:43;17.92;81.24
66861;SHT31;53770;42.334;23.550;2022-08-25T03:28:28;17.97;81.21
66861;SHT31;53770;42.334;23.550;2022-08-25T03:30:57;17.94;81.09
66861;SHT31;53770;42.334;23.550;2022-08-25T03:33:25;17.93;81.28
66861;SHT31;53770;42.334;23.550;2022-08-25T03:35:53;17.93;81.31
66861;SHT31;53770;42.334;23.550;2022-08-25T03:38:20;17.93;81.27
66861;SHT31;53770;42.334;23.550;2022-08-25T03:40:47;17.89;81.28
66861;SHT31;53770;42.334;23.550;2022-08-25T03:43:14;17.87;81.48
66861;SHT31;53770;42.334;23.550;2022-08-25T03:45:43;17.85;81.50
66861;SHT31;53770;42.334;23.550;2022-08-25T03:48:10;17.83;81.73
66861;SHT31;53770;42.334;23.550;2022-08-25T03:50:43;17.83;81.90
66861;SHT31;53770;42.334;23.550;2022-08-25T03:53:11;17.89;81.83
66861;SHT31;53770;42.334;23.550;2022-08-25T03:55:39;17.96;81.69
66861;SHT31;53770;42.334;23.550;2022-08-25T03:58:06;17.99;81.24
66861;SHT31;53770;42.334;23.550;2022-08-25T04:00:32;17.96;80.98
66861;SHT31;53770;42.334;23.550;2022-08-25T04:02:59;17.97;81.15
66861;SHT31;53770;42.334;23.550;2022-08-25T04:05:26;17.93;81.08
66861;SHT31;53770;42.334;23.550;2022-08-25T04:07:53;17.90;81.19
66861;SHT31;53770;42.334;23.550;2022-08-25T04:10:21;17.93;81.22
66861;SHT31;53770;42.334;23.550;2022-08-25T04:12:48;17.94;81.20
66861;SHT31;53770;42.334;23.550;2022-08-25T04:15:15;18.02;81.17
66861;SHT31;53770;42.334;23.550;2022-08-25T04:17:41;18.06;80.95
66861;SHT31;53770;42.334;23.550;2022-08-25T04:20:10;18.10;80.81
66861;SHT31;53770;42.334;23.550;2022-08-25T04:22:37;18.07;80.97
66861;SHT31;53770;42.334;23.550;2022-08-25T04:25:05;18.14;80.96
66861;SHT31;53770;42.334;23.550;2022-08-25T04:27:35;18.24;80.96
66861;SHT31;53770;42.334;23.550;2022-08-25T04:30:03;18.29;80.55
66861;SHT31;53770;42.334;23.550;2022-08-25T04:32:30;18.27;80.31
66861;SHT31;53770;42.334;23.550;2022-08-25T04:34:58;18.30;80.36
66861;SHT31;53770;42.334;23.550;2022-08-25T04:37:25;18.30;80.21
66861;SHT31;53770;42.334;23.550;2022-08-25T04:39:52;18.33;80.19
66861;SHT31;53770;42.334;23.550;2022-08-25T04:42:19;18.38;79.92
66861;SHT31;53770;42.334;23.550;2022-08-25T04:44:47;18.44;79.74
66861;SHT31;53770;42.334;23.550;2022-08-25T04:47:14;18.51;79.44
66861;SHT31;53770;42.334;23.550;2022-08-25T04:49:41;18.54;79.16
66861;SHT31;53770;42.334;23.550;2022-08-25T04:52:08;18.55;79.02
66861;SHT31;53770;42.334;23.550;2022-08-25T04:54:34;18.52;78.93
66861;SHT31;53770;42.334;23.550;2022-08-25T04:57:01;18.51;79.01
66861;SHT31;53770;42.334;23.550;2022-08-25T04:59:28;18.51;79.19
66861;SHT31;53770;42.334;23.550;2022-08-25T05:01:57;18.52;79.21
66861;SHT31;53770;42.334;23.550;2022-08-25T05:04:26;18.54;79.01
66861;SHT31;53770;42.334;23.550;2022-08-25T05:06:53;18.54;79.19
66861;SHT31;53770;42.334;23.550;2022-08-25T05:09:20;18.64;79.00
66861;SHT31;53770;42.334;23.550;2022-08-25T05:11:47;18.72;78.64
66861;SHT31;53770;42.334;23.550;2022-08-25T05:14:13;18.84;78.40
66861;SHT31;53770;42.334;23.550;2022-08-25T05:16:42;18.96;78.06
66861;SHT31;53770;42.334;23.550;2022-08-25T05:19:10;19.05;77.59
66861;SHT31;53770;42.334;23.550;2022-08-25T05:21:37;19.12;77.65
66861;SHT31;53770;42.334;23.550;2022-08-25T05:24:05;19.27;77.27
66861;SHT31;53770;42.334;23.550;2022-08-25T05:26:33;19.41;76.81
66861;SHT31;53770;42.334;23.550;2022-08-25T05:29:02;19.61;76.58
66861;SHT31;53770;42.334;23.550;2022-08-25T05:31:30;19.74;76.18
66861;SHT31;53770;42.334;23.550;2022-08-25T05:33:57;19.95;75.94
66861;SHT31;53770;42.334;23.550;2022-08-25T05:36:26;20.12;75.16
66861;SHT31;53770;42.334;23.550;2022-08-25T05:38:53;20.20;74.72
66861;SHT31;53770;42.334;23.550;2022-08-25T05:41:24;20.29;74.43
66861;SHT31;53770;42.334;23.550;2022-08-25T05:43:51;20.41;74.22
66861;SHT31;53770;42.334;23.550;2022-08-25T05:46:19;20.50;73.82
66861;SHT31;53770;42.334;23.550;2022-08-25T05:48:46;20.51;73.59
66861;SHT31;53770;42.334;23.550;2022-08-25T05:51:14;20.63;73.60
66861;SHT31;53770;42.334;23.550;2022-08-25T05:53:45;20.78;73.25
66861;SHT31;53770;42.334;23.550;2022-08-25T05:56:12;20.81;72.88
66861;SHT31;53770;42.334;23.550;2022-08-25T05:58:40;20.74;73.28
66861;SHT31;53770;42.334;23.550;2022-08-25T06:01:07;20.77;73.29
66861;SHT31;53770;42.334;23.550;2022-08-25T06:03:52;20.84;73.17
66861;SHT31;53770;42.334;23.550;2022-08-25T06:06:21;20.84;72.68
66861;SHT31;53770;42.334;23.550;2022-08-25T06:08:50;20.88;72.78
66861;SHT31;53770;42.334;23.550;2022-08-25T06:11:17;20.88;72.72
66861;SHT31;53770;42.334;23.550;2022-08-25T06:13:44;20.96;72.63
66861;SHT31;53770;42.334;23.550;2022-08-25T06:16:11;21.02;72.21
66861;SHT31;53770;42.334;23.550;2022-08-25T06:18:38;21.01;72.18
66861;SHT31;53770;42.334;23.550;2022-08-25T06:21:09;21.01;72.23
66861;SHT31;53770;42.334;23.550;2022-08-25T06:23:37;21.06;72.16
66861;SHT31;53770;42.334;23.550;2022-08-25T06:26:06;21.18;72.39
66861;SHT31;53770;42.334;23.550;2022-08-25T06:28:32;21.40;71.98
66861;SHT31;53770;42.334;23.550;2022-08-25T06:31:00;21.57;71.09
66861;SHT31;53770;42.334;23.550;2022-08-25T06:33:28;21.67;70.87
66861;SHT31;53770;42.334;23.550;2022-08-25T06:35:55;21.83;70.40
66861;SHT31;53770;42.334;23.550;2022-08-25T06:38:23;21.97;70.16
66861;SHT31;53770;42.334;23.550;2022-08-25T06:40:50;22.12;69.96
66861;SHT31;53770;42.334;23.550;2022-08-25T06:43:19;22.32;69.18
66861;SHT31;53770;42.334;23.550;2022-08-25T06:45:46;22.42;68.35
66861;SHT31;53770;42.334;23.550;2022-08-25T06:48:13;22.56;68.57
66861;SHT31;53770;42.334;23.550;2022-08-25T06:50:41;22.74;68.61
66861;SHT31;53770;42.334;23.550;2022-08-25T06:53:08;22.89;68.07
66861;SHT31;53770;42.334;23.550;2022-08-25T06:55:34;22.99;67.86
66861;SHT31;53770;42.334;23.550;2022-08-25T06:58:02;23.15;67.61
66861;SHT31;53770;42.334;23.550;2022-08-25T07:00:30;23.12;65.54
66861;SHT31;53770;42.334;23.550;2022-08-25T07:02:57;22.97;65.55
66861;SHT31;53770;42.334;23.550;2022-08-25T07:05:26;22.93;65.25
66861;SHT31;53770;42.334;23.550;2022-08-25T07:07:53;22.96;65.46
66861;SHT31;53770;42.334;23.550;2022-08-25T07:10:20;23.11;65.64
66861;SHT31;53770;42.334;23.550;2022-08-25T07:12:47;23.31;65.61
66861;SHT31;53770;42.334;23.550;2022-08-25T07:15:13;23.42;65.27
66861;SHT31;53770;42.334;23.550;2022-08-25T07:17:42;23.46;65.18
66861;SHT31;53770;42.334;23.550;2022-08-25T07:20:09;23.58;64.67
66861;SHT31;53770;42.334;23.550;2022-08-25T07:22:36;23.63;64.15
66861;SHT31;53770;42.334;23.550;2022-08-25T07:25:03;23.69;64.37
66861;SHT31;53770;42.334;23.550;2022-08-25T07:27:30;23.87;64.62
66861;SHT31;53770;42.334;23.550;2022-08-25T07:29:57;24.10;64.66
66861;SHT31;53770;42.334;23.550;2022-08-25T07:32:24;24.45;63.77
66861;SHT31;53770;42.334;23.550;2022-08-25T07:34:52;24.79;62.00
66861;SHT31;53770;42.334;23.550;2022-08-25T07:37:38;25.09;61.28
66861;SHT31;53770;42.334;23.550;2022-08-25T07:40:07;25.34;61.02
66861;SHT31;53770;42.334;23.550;2022-08-25T07:42:34;25.50;59.79
66861;SHT31;53770;42.334;23.550;2022-08-25T07:45:01;25.45;57.65
66861;SHT31;53770;42.334;23.550;2022-08-25T07:47:29;25.22;57.95
66861;SHT31;53770;42.334;23.550;2022-08-25T07:49:58;25.03;58.37
66861;SHT31;53770;42.334;23.550;2022-08-25T07:52:25;24.92;58.74
66861;SHT31;53770;42.334;23.550;2022-08-25T07:54:52;24.80;58.11
66861;SHT31;53770;42.334;23.550;2022-08-25T07:57:20;24.86;59.35
66861;SHT31;53770;42.334;23.550;2022-08-25T07:59:49;24.95;59.23
66861;SHT31;53770;42.334;23.550;2022-08-25T08:02:16;25.03;59.39
66861;SHT31;53770;42.334;23.550;2022-08-25T08:04:43;25.10;59.39
66861;SHT31;53770;42.334;23.550;2022-08-25T08:07:11;25.09;59.26
66861;SHT31;53770;42.334;23.550;2022-08-25T08:09:38;25.09;59.92
66861;SHT31;53770;42.334;23.550;2022-08-25T08:12:06;25.24;59.46
66861;SHT31;53770;42.334;23.550;2022-08-25T08:14:33;25.35;58.38
66861;SHT31;53770;42.334;23.550;2022-08-25T08:17:04;25.60;58.15
66861;SHT31;53770;42.334;23.550;2022-08-25T08:19:32;25.88;58.13
66861;SHT31;53770;42.334;23.550;2022-08-25T08:21:59;26.06;57.46
66861;SHT31;53770;42.334;23.550;2022-08-25T08:24:29;26.02;56.34
66861;SHT31;53770;42.334;23.550;2022-08-25T08:26:56;25.78;55.69
66861;SHT31;53770;42.334;23.550;2022-08-25T08:29:23;25.51;56.87
66861;SHT31;53770;42.334;23.550;2022-08-25T08:31:50;25.50;55.86
66861;SHT31;53770;42.334;23.550;2022-08-25T08:34:17;25.74;56.36
66861;SHT31;53770;42.334;23.550;2022-08-25T08:36:44;26.19;56.94
66861;SHT31;53770;42.334;23.550;2022-08-25T08:39:11;26.73;55.20
66861;SHT31;53770;42.334;23.550;2022-08-25T08:42:01;27.08;53.01
66861;SHT31;53770;42.334;23.550;2022-08-25T08:47:55;27.83;51.45
66861;SHT31;53770;42.334;23.550;2022-08-25T08:50:31;28.11;49.73
66861;SHT31;53770;42.334;23.550;2022-08-25T08:53:04;28.14;49.44
66861;SHT31;53770;42.334;23.550;2022-08-25T08:55:36;27.94;48.69
66861;SHT31;53770;42.334;23.550;2022-08-25T08:58:09;27.67;49.58
66861;SHT31;53770;42.334;23.550;2022-08-25T09:00:41;27.60;50.99
66861;SHT31;53770;42.334;23.550;2022-08-25T09:03:11;27.60;50.51
66861;SHT31;53770;42.334;23.550;2022-08-25T09:05:46;27.59;50.69
66861;SHT31;53770;42.334;23.550;2022-08-25T09:08:14;27.60;49.98
66861;SHT31;53770;42.334;23.550;2022-08-25T09:10:53;27.81;49.35
66861;SHT31;53770;42.334;23.550;2022-08-25T09:13:32;28.31;46.77
66861;SHT31;53770;42.334;23.550;2022-08-25T09:16:04;28.89;45.44
66861;SHT31;53770;42.334;23.550;2022-08-25T09:18:54;29.63;44.04
66861;SHT31;53770;42.334;23.550;2022-08-25T09:21:30;30.37;42.88
66861;SHT31;53770;42.334;23.550;2022-08-25T09:24:21;31.04;42.40
66861;SHT31;53770;42.334;23.550;2022-08-25T09:26:59;31.12;41.58
66861;SHT31;53770;42.334;23.550;2022-08-25T09:29:47;30.82;41.76
66861;SHT31;53770;42.334;23.550;2022-08-25T09:32:19;30.44;42.10
66861;SHT31;53770;42.334;23.550;2022-08-25T09:34:47;30.17;43.24
66861;SHT31;53770;42.334;23.550;2022-08-25T09:37:22;30.30;43.65
66861;SHT31;53770;42.334;23.550;2022-08-25T09:39:49;30.79;40.74
66861;SHT31;53770;42.334;23.550;2022-08-25T09:42:17;31.09;40.07
66861;SHT31;53770;42.334;23.550;2022-08-25T09:44:46;31.54;39.22
66861;SHT31;53770;42.334;23.550;2022-08-25T09:47:20;31.50;38.62
66861;SHT31;53770;42.334;23.550;2022-08-25T09:49:49;31.00;39.70
66861;SHT31;53770;42.334;23.550;2022-08-25T09:52:22;31.03;40.14
66861;SHT31;53770;42.334;23.550;2022-08-25T09:54:49;31.38;40.33
66861;SHT31;53770;42.334;23.550;2022-08-25T09:57:31;31.30;38.85
66861;SHT31;53770;42.334;23.550;2022-08-25T10:00:12;30.83;39.45
66861;SHT31;53770;42.334;23.550;2022-08-25T10:02:40;30.30;41.07
66861;SHT31;53770;42.334;23.550;2022-08-25T10:05:20;29.86;41.39
66861;SHT31;53770;42.334;23.550;2022-08-25T10:07:51;29.54;42.62
66861;SHT31;53770;42.334;23.550;2022-08-25T10:10:23;29.18;43.05
66861;SHT31;53770;42.334;23.550;2022-08-25T10:12:52;28.87;44.17
66861;SHT31;53770;42.334;23.550;2022-08-25T10:15:27;28.69;44.74
66861;SHT31;53770;42.334;23.550;2022-08-25T10:17:54;28.64;44.34
66861;SHT31;53770;42.334;23.550;2022-08-25T10:20:26;28.55;44.59
66861;SHT31;53770;42.334;23.550;2022-08-25T10:23:09;28.59;44.41
66861;SHT31;53770;42.334;23.550;2022-08-25T10:25:40;28.69;43.65
66861;SHT31;53770;42.334;23.550;2022-08-25T10:28:16;28.62;44.44
66861;SHT31;53770;42.334;23.550;2022-08-25T10:30:54;28.74;44.26
66861;SHT31;53770;42.334;23.550;2022-08-25T10:33:27;28.97;43.78
66861;SHT31;53770;42.334;23.550;2022-08-25T10:36:03;30.14;41.52
66861;SHT31;53770;42.334;23.550;2022-08-25T10:38:39;32.49;37.95
66861;SHT31;53770;42.334;23.550;2022-08-25T10:41:32;35.24;33.66
66861;SHT31;53770;42.334;23.550;2022-08-25T10:44:12;35.86;31.75
66861;SHT31;53770;42.334;23.550;2022-08-25T10:47:05;34.65;34.27
66861;SHT31;53770;42.334;23.550;2022-08-25T10:49:41;35.27;32.85
66861;SHT31;53770;42.334;23.550;2022-08-25T10:52:16;36.12;31.33
66861;SHT31;53770;42.334;23.550;2022-08-25T10:55:03;37.52;30.71
66861;SHT31;53770;42.334;23.550;2022-08-25T10:57:34;38.79;29.18
66861;SHT31;53770;42.334;23.550;2022-08-25T11:00:05;38.63;28.80
66861;SHT31;53770;42.334;23.550;2022-08-25T11:05:30;36.15;31.70
66861;SHT31;53770;42.334;23.550;2022-08-25T11:08:05;37.46;31.05
66861;SHT31;53770;42.334;23.550;2022-08-25T11:10:39;37.39;30.14
66861;SHT31;53770;42.334;23.550;2022-08-25T11:13:14;37.77;30.19
66861;SHT31;53770;42.334;23.550;2022-08-25T11:15:49;37.12;30.25
66861;SHT31;53770;42.334;23.550;2022-08-25T11:18:19;36.19;31.28
66861;SHT31;53770;42.334;23.550;2022-08-25T11:20:53;35.81;32.25
66861;SHT31;53770;42.334;23.550;2022-08-25T11:23:26;35.16;32.67
66861;SHT31;53770;42.334;23.550;2022-08-25T11:26:00;34.95;33.55
66861;SHT31;53770;42.334;23.550;2022-08-25T11:28:35;35.95;32.81
66861;SHT31;53770;42.334;23.550;2022-08-25T11:31:07;36.00;32.06
66861;SHT31;53770;42.334;23.550;2022-08-25T11:33:36;35.27;33.40
66861;SHT31;53770;42.334;23.550;2022-08-25T11:36:11;34.22;34.80
66861;SHT31;53770;42.334;23.550;2022-08-25T11:38:47;32.81;36.27
66861;SHT31;53770;42.334;23.550;2022-08-25T11:41:25;31.72;38.63
66861;SHT31;53770;42.334;23.550;2022-08-25T11:44:31;32.10;38.14
66861;SHT31;53770;42.334;23.550;2022-08-25T11:47:22;32.41;36.93
66861;SHT31;53770;42.334;23.550;2022-08-25T11:49:58;32.22;37.67
66861;SHT31;53770;42.334;23.550;2022-08-25T11:52:50;32.57;38.11
66861;SHT31;53770;42.334;23.550;2022-08-25T11:55:22;32.25;37.28
66861;SHT31;53770;42.334;23.550;2022-08-25T11:57:52;32.18;37.70
66861;SHT31;53770;42.334;23.550;2022-08-25T12:00:40;32.88;36.93
66861;SHT31;53770;42.334;23.550;2022-08-25T12:06:19;37.42;30.64
66861;SHT31;53770;42.334;23.550;2022-08-25T12:08:50;39.52;28.28
66861;SHT31;53770;42.334;23.550;2022-08-25T12:14:42;43.13;24.01
66861;SHT31;53770;42.334;23.550;2022-08-25T12:17:22;44.33;23.31
66861;SHT31;53770;42.334;23.550;2022-08-25T12:19:55;44.92;22.65
66861;SHT31;53770;42.334;23.550;2022-08-25T12:22:52;44.24;22.89
66861;SHT31;53770;42.334;23.550;2022-08-25T12:25:32;41.60;24.72
66861;SHT31;53770;42.334;23.550;2022-08-25T12:28:04;38.99;27.38
66861;SHT31;53770;42.334;23.550;2022-08-25T12:30:40;36.87;29.20
66861;SHT31;53770;42.334;23.550;2022-08-25T12:33:14;35.37;31.15
66861;SHT31;53770;42.334;23.550;2022-08-25T12:35:54;35.72;31.66
66861;SHT31;53770;42.334;23.550;2022-08-25T12:38:30;36.58;30.78
66861;SHT31;53770;42.334;23.550;2022-08-25T12:41:01;37.17;30.23
66861;SHT31;53770;42.334;23.550;2022-08-25T12:43:31;37.14;29.61
66861;SHT31;53770;42.334;23.550;2022-08-25T12:46:32;35.70;31.42
66861;SHT31;53770;42.334;23.550;2022-08-25T12:49:00;34.24;33.21
66861;SHT31;53770;42.334;23.550;2022-08-25T12:51:45;34.11;33.87
66861;SHT31;53770;42.334;23.550;2022-08-25T12:54:19;35.61;32.42
66861;SHT31;53770;42.334;23.550;2022-08-25T12:56:51;36.99;29.97
66861;SHT31;53770;42.334;23.550;2022-08-25T12:59:21;38.33;28.29
66861;SHT31;53770;42.334;23.550;2022-08-25T13:02:11;39.79;26.75
66861;SHT31;53770;42.334;23.550;2022-08-25T13:07:47;40.73;25.24
66861;SHT31;53770;42.334;23.550;2022-08-25T13:10:28;39.21;27.43
66861;SHT31;53770;42.334;23.550;2022-08-25T13:13:03;37.69;28.88
66861;SHT31;53770;42.334;23.550;2022-08-25T13:15:37;36.47;30.38
66861;SHT31;53770;42.334;23.550;2022-08-25T13:18:15;35.03;32.09
66861;SHT31;53770;42.334;23.550;2022-08-25T13:20:43;36.05;31.23
66861;SHT31;53770;42.334;23.550;2022-08-25T13:23:11;38.03;30.23
66861;SHT31;53770;42.334;23.550;2022-08-25T13:25:47;39.21;28.14
66861;SHT31;53770;42.334;23.550;2022-08-25T13:28:21;40.10;26.51
66861;SHT31;53770;42.334;23.550;2022-08-25T13:30:59;39.62;26.72
66861;SHT31;53770;42.334;23.550;2022-08-25T13:33:27;38.08;28.24
66861;SHT31;53770;42.334;23.550;2022-08-25T13:35:56;38.05;28.74
66861;SHT31;53770;42.334;23.550;2022-08-25T13:38:37;39.25;27.73
66861;SHT31;53770;42.334;23.550;2022-08-25T13:41:07;40.71;26.28
66861;SHT31;53770;42.334;23.550;2022-08-25T13:43:34;42.15;24.72
66861;SHT31;53770;42.334;23.550;2022-08-25T13:46:01;42.53;23.62
66861;SHT31;53770;42.334;23.550;2022-08-25T13:48:33;41.60;24.50
66861;SHT31;53770;42.334;23.550;2022-08-25T13:51:17;40.70;25.13
66861;SHT31;53770;42.334;23.550;2022-08-25T13:53:54;40.98;25.50
66861;SHT31;53770;42.334;23.550;2022-08-25T13:56:28;39.95;26.26
66861;SHT31;53770;42.334;23.550;2022-08-25T13:58:57;40.39;26.44
66861;SHT31;53770;42.334;23.550;2022-08-25T14:01:26;40.99;25.69
66861;SHT31;53770;42.334;23.550;2022-08-25T14:03:55;41.74;25.12
66861;SHT31;53770;42.334;23.550;2022-08-25T14:06:24;42.52;24.16
66861;SHT31;53770;42.334;23.550;2022-08-25T14:09:10;42.80;24.07
66861;SHT31;53770;42.334;23.550;2022-08-25T14:11:44;41.66;24.60
66861;SHT31;53770;42.334;23.550;2022-08-25T14:14:29;39.55;27.27
66861;SHT31;53770;42.334;23.550;2022-08-25T14:17:01;37.74;28.23
66861;SHT31;53770;42.334;23.550;2022-08-25T14:19:29;36.92;30.06
66861;SHT31;53770;42.334;23.550;2022-08-25T14:21:57;35.81;31.25
66861;SHT31;53770;42.334;23.550;2022-08-25T14:24:29;34.59;33.00
66861;SHT31;53770;42.334;23.550;2022-08-25T14:26:58;33.52;34.84
66861;SHT31;53770;42.334;23.550;2022-08-25T14:29:25;32.61;35.75
66861;SHT31;53770;42.334;23.550;2022-08-25T14:31:52;32.57;37.00
66861;SHT31;53770;42.334;23.550;2022-08-25T14:34:22;32.61;36.47
66861;SHT31;53770;42.334;23.550;2022-08-25T14:36:50;33.62;35.20
66861;SHT31;53770;42.334;23.550;2022-08-25T14:39:17;34.37;33.93
66861;SHT31;53770;42.334;23.550;2022-08-25T14:41:44;34.86;33.98
66861;SHT31;53770;42.334;23.550;2022-08-25T14:44:13;35.55;32.61
66861;SHT31;53770;42.334;23.550;2022-08-25T14:46:43;36.29;31.73
66861;SHT31;53770;42.334;23.550;2022-08-25T14:49:14;36.77;30.82
66861;SHT31;53770;42.334;23.550;2022-08-25T14:51:42;36.98;30.41
66861;SHT31;53770;42.334;23.550;2022-08-25T14:54:11;36.44;31.28
66861;SHT31;53770;42.334;23.550;2022-08-25T14:56:39;35.75;31.78
66861;SHT31;53770;42.334;23.550;2022-08-25T14:59:06;35.38;32.55
66861;SHT31;53770;42.334;23.550;2022-08-25T15:01:34;35.51;33.00
66861;SHT31;53770;42.334;23.550;2022-08-25T15:04:05;35.77;32.56
66861;SHT31;53770;42.334;23.550;2022-08-25T15:06:33;35.81;32.20
66861;SHT31;53770;42.334;23.550;2022-08-25T15:09:00;35.43;32.82
66861;SHT31;53770;42.334;23.550;2022-08-25T15:11:32;34.35;33.97
66861;SHT31;53770;42.334;23.550;2022-08-25T15:14:00;33.14;35.92
66861;SHT31;53770;42.334;23.550;2022-08-25T15:16:29;32.06;37.57
66861;SHT31;53770;42.334;23.550;2022-08-25T15:18:58;31.12;38.95
66861;SHT31;53770;42.334;23.550;2022-08-25T15:21:25;30.28;41.02
66861;SHT31;53770;42.334;23.550;2022-08-25T15:23:52;29.56;41.84
66861;SHT31;53770;42.334;23.550;2022-08-25T15:26:18;28.97;43.44
66861;SHT31;53770;42.334;23.550;2022-08-25T15:28:48;28.52;43.87
66861;SHT31;53770;42.334;23.550;2022-08-25T15:31:15;28.05;44.42
66861;SHT31;53770;42.334;23.550;2022-08-25T15:33:42;27.70;45.15
66861;SHT31;53770;42.334;23.550;2022-08-25T15:36:12;27.32;46.03
66861;SHT31;53770;42.334;23.550;2022-08-25T15:38:41;26.98;46.63
66861;SHT31;53770;42.334;23.550;2022-08-25T15:41:09;26.61;47.47
66861;SHT31;53770;42.334;23.550;2022-08-25T15:43:37;26.35;47.88
66861;SHT31;53770;42.334;23.550;2022-08-25T15:46:05;26.26;47.86
66861;SHT31;53770;42.334;23.550;2022-08-25T15:48:32;26.27;48.24
66861;SHT31;53770;42.334;23.550;2022-08-25T15:51:00;26.30;47.89